sensor_id;sensor_type;location;lat;lon;timestamp;pressure;altitude;pressure_sealevel;temperature;humidity
69717;BME280;67420;46.144;19.666;2023-10-13T00:04:32;100508.16;;;10.46;100.00
69717;BME280;67420;46.144;19.666;2023-10-13T00:14:37;100501.13;;;10.24;100.00
69717;BME280;67420;46.144;19.666;2023-10-13T00:24:42;100508.63;;;10.09;100.00
69717;BME280;67420;46.144;19.666;2023-10-13T00:34:45;100504.97;;;9.88;100.00
69717;BME280;67420;46.144;19.666;2023-10-13T00:44:47;100507.19;;;9.76;100.00
69717;BME280;67420;46.144;19.666;2023-10-13T00:54:56;100508.03;;;9.76;100.00
69717;BME280;67420;46.144;19.666;2023-10-13T01:05:02;100491.75;;;9.65;100.00
69717;BME280;67420;46.144;19.666;2023-10-13T01:15:06;100486.25;;;9.46;100.00
69717;BME280;67420;46.144;19.666;2023-10-13T01:25:12;100478.22;;;9.51;100.00
69717;BME280;67420;46.144;19.666;2023-10-13T01:35:21;100489.97;;;9.91;100.00
69717;BME280;67420;46.144;19.666;2023-10-13T01:45:38;100482.19;;;9.63;100.00
69717;BME280;67420;46.144;19.666;2023-10-13T01:55:51;100478.13;;;9.79;100.00
69717;BME280;67420;46.144;19.666;2023-10-13T02:05:54;100485.13;;;9.80;100.00
69717;BME280;67420;46.144;19.666;2023-10-13T02:15:59;100496.75;;;10.23;100.00
69717;BME280;67420;46.144;19.666;2023-10-13T02:26:06;100491.22;;;10.05;100.00
69717;BME280;67420;46.144;19.666;2023-10-13T02:36:16;100507.84;;;9.82;100.00
69717;BME280;67420;46.144;19.666;2023-10-13T02:46:24;100506.13;;;9.81;100.00
69717;BME280;67420;46.144;19.666;2023-10-13T02:56:30;100503.63;;;9.77;100.00
69717;BME280;67420;46.144;19.666;2023-10-13T03:06:32;100510.91;;;9.69;100.00
69717;BME280;67420;46.144;19.666;2023-10-13T03:16:35;100522.84;;;9.54;100.00
69717;BME280;67420;46.144;19.666;2023-10-13T03:26:38;100510.53;;;9.55;100.00
69717;BME280;67420;46.144;19.666;2023-10-13T03:36:46;100507.84;;;9.30;100.00
69717;BME280;67420;46.144;19.666;2023-10-13T03:46:58;100516.50;;;9.33;100.00
69717;BME280;67420;46.144;19.666;2023-10-13T03:57:11;100523.72;;;9.27;100.00
69717;BME280;67420;46.144;19.666;2023-10-13T04:07:13;100533.84;;;9.11;100.00
69717;BME280;67420;46.144;19.666;2023-10-13T04:17:22;100544.38;;;9.11;100.00
69717;BME280;67420;46.144;19.666;2023-10-13T04:27:26;100549.47;;;9.15;100.00
69717;BME280;67420;46.144;19.666;2023-10-13T04:37:42;100546.84;;;9.15;100.00
69717;BME280;67420;46.144;19.666;2023-10-13T04:48:10;100534.16;;;9.02;100.00
69717;BME280;67420;46.144;19.666;2023-10-13T04:58:20;100537.97;;;9.19;100.00
69717;BME280;67420;46.144;19.666;2023-10-13T05:08:55;100564.56;;;9.37;100.00
69717;BME280;67420;46.144;19.666;2023-10-13T05:19:26;100583.56;;;9.73;100.00
69717;BME280;67420;46.144;19.666;2023-10-13T05:29:50;100579.47;;;10.15;100.00
69717;BME280;67420;46.144;19.666;2023-10-13T05:40:21;100598.53;;;10.48;100.00
69717;BME280;67420;46.144;19.666;2023-10-13T05:50:43;100614.84;;;10.83;100.00
69717;BME280;67420;46.144;19.666;2023-10-13T06:01:11;100610.66;;;11.46;100.00
69717;BME280;67420;46.144;19.666;2023-10-13T06:22:21;100630.38;;;12.64;100.00
69717;BME280;67420;46.144;19.666;2023-10-13T06:32:50;100651.50;;;12.84;100.00
69717;BME280;67420;46.144;19.666;2023-10-13T06:42:57;100659.97;;;13.50;100.00
69717;BME280;67420;46.144;19.666;2023-10-13T06:53:22;100662.56;;;14.05;100.00
69717;BME280;67420;46.144;19.666;2023-10-13T07:03:27;100660.78;;;14.91;100.00
69717;BME280;67420;46.144;19.666;2023-10-13T07:13:34;100666.47;;;15.66;100.00
69717;BME280;67420;46.144;19.666;2023-10-13T07:23:59;100664.69;;;16.42;100.00
69717;BME280;67420;46.144;19.666;2023-10-13T07:34:19;100666.81;;;16.51;100.00
69717;BME280;67420;46.144;19.666;2023-10-13T07:44:35;100655.22;;;17.10;100.00
69717;BME280;67420;46.144;19.666;2023-10-13T07:54:50;100656.31;;;17.49;100.00
69717;BME280;67420;46.144;19.666;2023-10-13T08:05:01;100642.69;;;18.34;94.80
69717;BME280;67420;46.144;19.666;2023-10-13T08:15:08;100637.75;;;18.93;87.52
69717;BME280;67420;46.144;19.666;2023-10-13T08:25:24;100648.88;;;19.61;83.71
69717;BME280;67420;46.144;19.666;2023-10-13T08:35:55;100654.44;;;20.06;79.04
69717;BME280;67420;46.144;19.666;2023-10-13T08:46:20;100653.13;;;20.71;75.46
69717;BME280;67420;46.144;19.666;2023-10-13T08:56:42;100644.88;;;21.18;72.95
69717;BME280;67420;46.144;19.666;2023-10-13T09:07:05;100641.31;;;21.62;70.21
69717;BME280;67420;46.144;19.666;2023-10-13T09:17:27;100619.88;;;22.06;66.38
69717;BME280;67420;46.144;19.666;2023-10-13T09:27:37;100614.47;;;22.58;63.37
69717;BME280;67420;46.144;19.666;2023-10-13T09:37:40;100622.63;;;22.98;62.07
69717;BME280;67420;46.144;19.666;2023-10-13T09:47:47;100619.72;;;23.11;60.31
69717;BME280;67420;46.144;19.666;2023-10-13T09:58:03;100610.66;;;23.52;59.03
69717;BME280;67420;46.144;19.666;2023-10-13T10:08:24;100599.53;;;23.86;56.79
69717;BME280;67420;46.144;19.666;2023-10-13T10:18:37;100600.38;;;24.06;56.03
69717;BME280;67420;46.144;19.666;2023-10-13T10:28:42;100585.19;;;24.43;54.66
69717;BME280;67420;46.144;19.666;2023-10-13T10:38:53;100574.31;;;24.72;52.81
69717;BME280;67420;46.144;19.666;2023-10-13T10:49:04;100559.06;;;24.53;51.96
69717;BME280;67420;46.144;19.666;2023-10-13T10:59:14;100573.06;;;25.13;51.05
69717;BME280;67420;46.144;19.666;2023-10-13T11:09:32;100577.03;;;25.19;51.32
69717;BME280;67420;46.144;19.666;2023-10-13T11:19:41;100557.47;;;25.07;50.73
69717;BME280;67420;46.144;19.666;2023-10-13T11:29:47;100551.31;;;25.42;48.30
69717;BME280;67420;46.144;19.666;2023-10-13T11:39:55;100529.19;;;25.74;48.43
69717;BME280;67420;46.144;19.666;2023-10-13T11:50:01;100523.63;;;25.76;47.53
69717;BME280;67420;46.144;19.666;2023-10-13T12:00:10;100511.44;;;25.54;48.37
69717;BME280;67420;46.144;19.666;2023-10-13T12:10:33;100497.38;;;26.03;47.74
69717;BME280;67420;46.144;19.666;2023-10-13T12:20:38;100484.13;;;25.92;46.99
69717;BME280;67420;46.144;19.666;2023-10-13T12:30:50;100473.34;;;25.75;45.73
69717;BME280;67420;46.144;19.666;2023-10-13T12:40:58;100475.72;;;25.95;45.19
69717;BME280;67420;46.144;19.666;2023-10-13T12:51:39;100471.00;;;26.23;44.62
69717;BME280;67420;46.144;19.666;2023-10-13T13:01:56;100462.09;;;26.05;44.28
69717;BME280;67420;46.144;19.666;2023-10-13T13:12:00;100449.44;;;26.06;44.65
69717;BME280;67420;46.144;19.666;2023-10-13T13:22:03;100441.31;;;25.97;43.35
69717;BME280;67420;46.144;19.666;2023-10-13T13:32:08;100451.88;;;25.91;44.35
69717;BME280;67420;46.144;19.666;2023-10-13T13:42:48;100434.59;;;25.84;42.53
69717;BME280;67420;46.144;19.666;2023-10-13T13:52:53;100440.91;;;25.66;44.55
69717;BME280;67420;46.144;19.666;2023-10-13T14:02:59;100433.31;;;25.52;44.17
69717;BME280;67420;46.144;19.666;2023-10-13T14:13:06;100437.56;;;25.37;44.82
69717;BME280;67420;46.144;19.666;2023-10-13T14:23:12;100419.91;;;25.25;45.23
69717;BME280;67420;46.144;19.666;2023-10-13T14:33:22;100418.13;;;24.98;46.28
69717;BME280;67420;46.144;19.666;2023-10-13T14:43:29;100406.59;;;24.78;46.51
69717;BME280;67420;46.144;19.666;2023-10-13T14:53:34;100417.03;;;24.63;46.75
69717;BME280;67420;46.144;19.666;2023-10-13T15:03:38;100414.63;;;24.33;48.52
69717;BME280;67420;46.144;19.666;2023-10-13T15:13:47;100422.84;;;23.65;51.20
69717;BME280;67420;46.144;19.666;2023-10-13T15:23:54;100427.19;;;22.89;53.72
69717;BME280;67420;46.144;19.666;2023-10-13T15:34:11;100431.28;;;22.13;56.70
69717;BME280;67420;46.144;19.666;2023-10-13T15:44:22;100428.09;;;21.57;58.37
69717;BME280;67420;46.144;19.666;2023-10-13T15:54:31;100432.59;;;20.92;60.36
69717;BME280;67420;46.144;19.666;2023-10-13T16:04:38;100428.50;;;20.55;61.59
69717;BME280;67420;46.144;19.666;2023-10-13T16:14:48;100438.38;;;20.54;61.25
69717;BME280;67420;46.144;19.666;2023-10-13T16:24:51;100449.94;;;19.75;64.93
69717;BME280;67420;46.144;19.666;2023-10-13T16:35:06;100446.47;;;18.79;68.27
69717;BME280;67420;46.144;19.666;2023-10-13T16:45:08;100445.25;;;18.21;71.03
69717;BME280;67420;46.144;19.666;2023-10-13T16:55:18;100433.84;;;17.94;72.98
69717;BME280;67420;46.144;19.666;2023-10-13T17:05:22;100441.69;;;17.57;75.48
69717;BME280;67420;46.144;19.666;2023-10-13T17:15:35;100437.28;;;17.17;78.50
69717;BME280;67420;46.144;19.666;2023-10-13T17:25:40;100449.41;;;16.81;81.41
69717;BME280;67420;46.144;19.666;2023-10-13T17:35:42;100441.34;;;16.40;83.44
69717;BME280;67420;46.144;19.666;2023-10-13T17:45:45;100436.31;;;15.93;86.26
69717;BME280;67420;46.144;19.666;2023-10-13T17:55:48;100441.41;;;15.38;94.17
69717;BME280;67420;46.144;19.666;2023-10-13T18:05:58;100456.44;;;15.23;100.00
69717;BME280;67420;46.144;19.666;2023-10-13T18:16:14;100450.44;;;15.19;97.44
69717;BME280;67420;46.144;19.666;2023-10-13T18:26:17;100449.78;;;14.84;100.00
69717;BME280;67420;46.144;19.666;2023-10-13T18:36:22;100446.00;;;14.57;100.00
69717;BME280;67420;46.144;19.666;2023-10-13T18:46:29;100452.59;;;14.17;100.00
69717;BME280;67420;46.144;19.666;2023-10-13T18:56:32;100451.63;;;14.02;100.00
69717;BME280;67420;46.144;19.666;2023-10-13T19:06:36;100457.97;;;14.15;100.00
69717;BME280;67420;46.144;19.666;2023-10-13T19:16:42;100458.50;;;13.54;100.00
69717;BME280;67420;46.144;19.666;2023-10-13T19:26:48;100452.59;;;13.32;100.00
69717;BME280;67420;46.144;19.666;2023-10-13T19:36:50;100440.91;;;13.19;100.00
69717;BME280;67420;46.144;19.666;2023-10-13T19:46:55;100445.19;;;13.03;100.00
69717;BME280;67420;46.144;19.666;2023-10-13T19:56:57;100452.28;;;13.38;100.00
69717;BME280;67420;46.144;19.666;2023-10-13T20:06:59;100438.59;;;12.94;100.00
69717;BME280;67420;46.144;19.666;2023-10-13T20:17:02;100436.31;;;12.86;100.00
69717;BME280;67420;46.144;19.666;2023-10-13T20:27:08;100451.94;;;12.91;100.00
69717;BME280;67420;46.144;19.666;2023-10-13T20:37:12;100450.59;;;12.82;100.00
69717;BME280;67420;46.144;19.666;2023-10-13T20:47:14;100428.19;;;12.53;100.00
69717;BME280;67420;46.144;19.666;2023-10-13T20:57:19;100421.72;;;12.78;100.00
69717;BME280;67420;46.144;19.666;2023-10-13T21:07:23;100421.31;;;12.68;100.00
69717;BME280;67420;46.144;19.666;2023-10-13T21:17:25;100417.69;;;12.52;100.00
69717;BME280;67420;46.144;19.666;2023-10-13T21:27:28;100409.00;;;12.86;100.00
69717;BME280;67420;46.144;19.666;2023-10-13T21:37:33;100389.69;;;12.48;100.00
69717;BME280;67420;46.144;19.666;2023-10-13T21:47:36;100388.28;;;12.41;100.00
69717;BME280;67420;46.144;19.666;2023-10-13T21:57:38;100399.50;;;13.18;100.00
69717;BME280;67420;46.144;19.666;2023-10-13T22:07:41;100366.34;;;13.45;100.00
69717;BME280;67420;46.144;19.666;2023-10-13T22:17:51;100362.22;;;14.06;100.00
69717;BME280;67420;46.144;19.666;2023-10-13T22:27:56;100349.53;;;14.28;100.00
69717;BME280;67420;46.144;19.666;2023-10-13T22:37:59;100354.78;;;14.12;100.00
69717;BME280;67420;46.144;19.666;2023-10-13T22:48:01;100333.75;;;13.93;100.00
69717;BME280;67420;46.144;19.666;2023-10-13T22:58:06;100340.59;;;13.32;100.00
69717;BME280;67420;46.144;19.666;2023-10-13T23:08:12;100346.44;;;13.21;100.00
69717;BME280;67420;46.144;19.666;2023-10-13T23:18:40;100328.22;;;12.98;100.00
69717;BME280;67420;46.144;19.666;2023-10-13T23:28:49;100342.59;;;12.56;100.00
69717;BME280;67420;46.144;19.666;2023-10-13T23:38:56;100330.31;;;12.19;100.00
69717;BME280;67420;46.144;19.666;2023-10-13T23:48:58;100357.00;;;12.32;100.00
69717;BME280;67420;46.144;19.666;2023-10-13T23:59:02;100351.00;;;11.91;100.00
